Time;durP1;ratioP1;P1;durP2;ratioP2;P2;SDS_P1;SDS_P2;PMS_P1;PMS_P2;Temp;Humidity;BMP_temperature;BMP_pressure;BME280_temperature;BME280_humidity;BME280_pressure;Samples;Min_cycle;Max_cycle;Signal;HPM_P1;HPM_P2
2021/10/14 00:00:23;;;;;;;7.28;4.68;;;;;;;6.96;98.77;100783.22;5134817;27;20392;-69
2021/10/14 00:02:51;;;;;;;7.80;4.28;;;;;;;6.86;99.38;100782.69;5134839;27;20046;-67
2021/10/14 00:05:21;;;;;;;6.70;4.13;;;;;;;6.98;98.49;100785.81;5134753;27;20043;-68
2021/10/14 00:07:49;;;;;;;7.55;4.03;;;;;;;6.85;99.59;100780.97;5134631;27;20043;-68
2021/10/14 00:10:20;;;;;;;7.38;4.60;;;;;;;6.71;100.00;100782.38;5134450;27;20067;-68
2021/10/14 00:12:48;;;;;;;5.30;3.97;;;;;;;6.78;100.00;100781.22;5134784;27;20047;-68
2021/10/14 00:15:17;;;;;;;7.65;4.32;;;;;;;6.86;100.00;100782.69;5134126;27;20141;-69
2021/10/14 00:17:45;;;;;;;7.60;4.00;;;;;;;6.88;100.00;100783.50;5134521;27;20130;-69
2021/10/14 00:20:13;;;;;;;7.65;4.60;;;;;;;6.86;100.00;100788.00;5134116;27;20043;-69
2021/10/14 00:22:43;;;;;;;7.05;4.53;;;;;;;6.73;100.00;100785.81;5134554;27;20556;-69
2021/10/14 00:25:12;;;;;;;6.75;4.50;;;;;;;6.80;100.00;100787.34;5134127;27;20066;-69
2021/10/14 00:27:40;;;;;;;7.10;4.30;;;;;;;6.92;100.00;100788.66;5134471;27;20096;-69
2021/10/14 00:30:09;;;;;;;7.13;4.20;;;;;;;6.91;99.96;100784.28;5134057;27;20470;-70
2021/10/14 00:32:38;;;;;;;7.03;4.53;;;;;;;6.79;100.00;100773.22;5134026;27;20057;-69
2021/10/14 00:35:07;;;;;;;7.55;4.43;;;;;;;6.71;100.00;100767.31;5133857;27;20039;-69
2021/10/14 00:37:36;;;;;;;7.78;4.20;;;;;;;6.70;100.00;100768.25;5134356;27;20403;-69
2021/10/14 00:40:08;;;;;;;6.55;4.05;;;;;;;6.73;100.00;100784.03;5132757;27;20047;-69
2021/10/14 00:42:36;;;;;;;7.43;4.33;;;;;;;6.98;99.85;100785.81;5134089;27;20051;-68
2021/10/14 00:45:06;;;;;;;9.50;4.68;;;;;;;6.75;100.00;100787.47;5134025;27;20050;-70
2021/10/14 00:47:34;;;;;;;8.85;4.82;;;;;;;6.80;100.00;100780.25;5133991;27;20112;-69
2021/10/14 00:50:07;;;;;;;8.27;5.25;;;;;;;6.82;100.00;100778.41;5134010;27;20039;-69
2021/10/14 00:52:39;;;;;;;9.65;4.93;;;;;;;6.77;100.00;100782.16;5134308;27;20396;-69
2021/10/14 00:55:11;;;;;;;9.00;5.05;;;;;;;6.84;100.00;100779.19;5132322;27;20054;-69
2021/10/14 00:57:40;;;;;;;8.07;5.07;;;;;;;6.77;100.00;100777.72;5133837;27;20589;-69
2021/10/14 01:00:10;;;;;;;8.27;5.43;;;;;;;6.78;100.00;100778.59;5133531;27;20099;-69
2021/10/14 01:02:38;;;;;;;8.07;5.05;;;;;;;6.77;100.00;100777.72;5133814;27;20035;-69
2021/10/14 01:05:07;;;;;;;9.43;5.53;;;;;;;6.85;100.00;100780.06;5133569;27;20138;-68
2021/10/14 01:07:35;;;;;;;9.00;5.28;;;;;;;6.91;100.00;100781.66;5134064;27;20047;-69
2021/10/14 01:10:05;;;;;;;7.60;5.00;;;;;;;6.80;100.00;100780.25;5133673;27;20043;-69
2021/10/14 01:12:35;;;;;;;8.77;5.07;;;;;;;6.95;100.00;100786.78;5138402;27;20383;-69
2021/10/14 01:15:16;;;;;;;8.88;5.63;;;;;;;6.85;100.00;100788.03;5137970;27;20046;-68
2021/10/14 01:17:44;;;;;;;8.00;5.00;;;;;;;6.99;100.00;100787.53;5138261;27;20087;-68
2021/10/14 01:20:14;;;;;;;8.60;5.47;;;;;;;6.95;100.00;100786.78;5137692;27;20031;-68
2021/10/14 01:22:43;;;;;;;9.70;5.40;;;;;;;7.02;100.00;100792.72;5137827;27;20492;-68
2021/10/14 01:25:11;;;;;;;7.68;5.22;;;;;;;6.97;100.00;100789.38;5137571;27;20490;-69
2021/10/14 01:27:40;;;;;;;8.02;5.22;;;;;;;6.94;100.00;100786.81;5137896;27;20540;-70
2021/10/14 01:30:10;;;;;;;8.20;5.25;;;;;;;6.89;100.00;100790.53;5137413;27;20075;-70
2021/10/14 01:32:39;;;;;;;10.40;5.78;;;;;;;6.91;100.00;100787.81;5137722;27;20389;-70
2021/10/14 01:35:08;;;;;;;9.52;5.63;;;;;;;6.73;100.00;100786.69;5137572;27;20100;-70
2021/10/14 01:37:38;;;;;;;8.30;5.03;;;;;;;6.75;100.00;100787.47;5136806;27;20100;-69
2021/10/14 01:40:07;;;;;;;8.82;5.53;;;;;;;6.79;100.00;100786.47;5137339;27;20043;-70
2021/10/14 01:42:36;;;;;;;9.60;5.20;;;;;;;6.91;100.00;100784.28;5137657;27;20117;-69
2021/10/14 01:45:05;;;;;;;9.07;5.60;;;;;;;6.89;100.00;100787.88;5137147;27;20095;-70
2021/10/14 01:47:35;;;;;;;8.65;5.30;;;;;;;6.89;100.00;100784.34;5137584;27;20134;-69
2021/10/14 01:50:04;;;;;;;7.72;4.90;;;;;;;6.77;100.00;100792.75;5137274;27;20046;-69
2021/10/14 01:52:32;;;;;;;7.85;5.10;;;;;;;6.78;100.00;100787.41;5137453;27;20088;-70
2021/10/14 01:55:02;;;;;;;8.13;5.13;;;;;;;6.70;100.00;100788.59;5137371;27;20096;-73
2021/10/14 01:57:30;;;;;;;7.90;5.47;;;;;;;6.68;100.00;100783.34;5137797;27;20043;-70
2021/10/14 01:59:59;;;;;;;8.88;4.80;;;;;;;6.58;100.00;100787.25;5137570;27;20103;-69
2021/10/14 02:02:27;;;;;;;7.43;4.78;;;;;;;6.62;100.00;100785.34;5137429;27;20043;-69
2021/10/14 02:04:55;;;;;;;8.32;5.20;;;;;;;6.53;100.00;100782.09;5139891;27;20039;-69
2021/10/14 02:07:24;;;;;;;8.75;5.03;;;;;;;6.56;100.00;100789.06;5140211;27;20172;-69
2021/10/14 02:09:52;;;;;;;7.85;5.15;;;;;;;6.50;100.00;100786.66;5140207;27;20047;-69
2021/10/14 02:12:22;;;;;;;7.93;5.00;;;;;;;6.56;100.00;100786.41;5139527;27;20063;-70
2021/10/14 02:14:50;;;;;;;8.02;4.85;;;;;;;6.64;100.00;100791.44;5139428;27;20031;-71
2021/10/14 02:17:18;;;;;;;9.07;5.00;;;;;;;6.71;100.00;100785.00;5138696;27;20070;-68
2021/10/14 02:19:48;;;;;;;7.32;4.80;;;;;;;6.59;100.00;100789.84;5138005;27;20043;-69
2021/10/14 02:22:16;;;;;;;6.88;5.00;;;;;;;6.56;100.00;100795.25;5137093;27;20480;-70
2021/10/14 02:24:45;;;;;;;7.78;5.10;;;;;;;6.70;100.00;100791.25;5137024;27;20043;-70
2021/10/14 02:27:13;;;;;;;8.15;5.30;;;;;;;6.72;100.00;100797.34;5136383;27;20441;-70
2021/10/14 02:29:43;;;;;;;9.38;4.75;;;;;;;6.60;100.00;100802.16;5136817;27;20472;-69
2021/10/14 02:32:11;;;;;;;8.55;4.55;;;;;;;6.81;100.00;100799.66;5136462;27;20050;-69
2021/10/14 02:34:39;;;;;;;8.85;5.38;;;;;;;6.72;100.00;100805.31;5136814;27;20126;-69
2021/10/14 02:37:08;;;;;;;7.72;4.95;;;;;;;6.73;100.00;100802.59;5136231;27;20472;-69
2021/10/14 02:39:37;;;;;;;8.75;4.93;;;;;;;6.71;100.00;100812.38;5136384;27;20047;-70
2021/10/14 02:42:05;;;;;;;8.05;5.40;;;;;;;6.71;100.00;100808.88;5135932;27;20051;-70
2021/10/14 02:44:33;;;;;;;8.43;5.80;;;;;;;6.56;100.00;100805.84;5136423;27;20046;-69
2021/10/14 02:47:03;;;;;;;7.97;4.95;;;;;;;6.71;100.00;100815.03;5136352;27;20047;-69
2021/10/14 02:49:32;;;;;;;6.43;4.57;;;;;;;6.73;100.00;100822.94;5136162;27;20065;-70
2021/10/14 02:52:00;;;;;;;7.57;4.90;;;;;;;6.68;100.00;100812.50;5136022;27;20046;-70
2021/10/14 02:54:28;;;;;;;8.73;5.40;;;;;;;6.48;100.00;100818.50;5135622;27;20054;-70
2021/10/14 02:56:56;;;;;;;7.72;5.10;;;;;;;6.55;100.00;100820.00;5136015;27;20468;-70
2021/10/14 02:59:25;;;;;;;9.25;5.28;;;;;;;6.56;100.00;100810.25;5135874;27;20060;-71
2021/10/14 03:01:53;;;;;;;8.30;5.15;;;;;;;6.65;100.00;100809.94;5136121;27;20104;-70
2021/10/14 03:04:25;;;;;;;8.18;5.07;;;;;;;6.66;100.00;100800.19;5135670;27;20095;-70
2021/10/14 03:06:54;;;;;;;8.13;5.07;;;;;;;6.67;100.00;100801.97;5135800;27;20039;-68
2021/10/14 03:09:22;;;;;;;10.25;6.32;;;;;;;6.53;100.00;100805.94;5135392;27;20047;-69
2021/10/14 03:11:50;;;;;;;8.73;5.72;;;;;;;6.45;100.00;100805.34;5135751;27;20047;-69
2021/10/14 03:14:18;;;;;;;11.30;6.55;;;;;;;6.47;100.00;100805.31;5134165;27;20054;-70
2021/10/14 03:16:46;;;;;;;10.80;6.25;;;;;;;6.38;100.00;100814.44;5135718;27;20476;-70
2021/10/14 03:19:15;;;;;;;8.90;5.97;;;;;;;6.48;100.00;100807.03;5135227;27;20039;-69
2021/10/14 03:21:44;;;;;;;9.60;6.28;;;;;;;6.59;100.00;100802.22;5135568;27;20047;-69
2021/10/14 03:24:15;;;;;;;9.07;5.93;;;;;;;6.57;100.00;100819.97;5135310;27;20100;-68
2021/10/14 03:26:43;;;;;;;9.63;6.10;;;;;;;6.51;100.00;100823.69;5135533;27;20502;-68
2021/10/14 03:29:11;;;;;;;8.43;5.53;;;;;;;6.54;100.00;100812.09;5134945;27;20126;-68
2021/10/14 03:31:40;;;;;;;8.55;5.70;;;;;;;6.52;100.00;100824.56;5135606;27;20077;-69
2021/10/14 03:34:08;;;;;;;11.07;6.00;;;;;;;6.57;100.00;100817.31;5134557;27;20047;-71
2021/10/14 03:36:36;;;;;;;9.68;5.55;;;;;;;6.52;100.00;100819.25;5135462;27;20039;-70
2021/10/14 03:39:06;;;;;;;7.93;4.80;;;;;;;6.73;100.00;100822.94;5135383;27;20047;-69
2021/10/14 03:41:35;;;;;;;7.68;5.32;;;;;;;6.56;100.00;100820.88;5135382;27;20058;-70
2021/10/14 03:44:03;;;;;;;8.57;5.07;;;;;;;6.51;100.00;100820.19;5135356;27;20403;-69
2021/10/14 03:46:31;;;;;;;7.32;4.88;;;;;;;6.77;100.00;100824.56;5134754;27;20042;-69
2021/10/14 03:48:59;;;;;;;8.93;4.95;;;;;;;6.89;100.00;100819.69;5134960;27;20039;-69
2021/10/14 03:51:27;;;;;;;6.50;4.55;;;;;;;6.68;100.00;100823.13;5134511;27;20042;-69
2021/10/14 03:53:56;;;;;;;6.80;4.68;;;;;;;6.72;100.00;100826.50;5133732;27;20062;-70
2021/10/14 03:56:25;;;;;;;7.82;4.63;;;;;;;6.67;100.00;100826.69;5134508;27;20050;-70
2021/10/14 03:58:53;;;;;;;7.90;5.40;;;;;;;6.79;100.00;100828.91;5134748;27;20047;-70
2021/10/14 04:01:22;;;;;;;9.57;5.18;;;;;;;6.73;100.00;100828.25;5134712;27;20448;-70
2021/10/14 04:03:50;;;;;;;7.40;4.72;;;;;;;6.63;100.00;100833.00;5134960;27;20087;-69
2021/10/14 04:06:18;;;;;;;8.55;4.88;;;;;;;6.68;100.00;100832.84;5134626;27;20043;-70
2021/10/14 04:08:46;;;;;;;7.72;5.15;;;;;;;6.65;100.00;100840.88;5134853;27;20047;-69
2021/10/14 04:11:14;;;;;;;9.02;5.35;;;;;;;6.68;100.00;100833.72;5134265;27;20061;-69
2021/10/14 04:13:44;;;;;;;9.50;5.22;;;;;;;6.65;100.00;100835.59;5134487;27;20134;-70
2021/10/14 04:16:13;;;;;;;9.20;5.13;;;;;;;6.64;100.00;100834.72;5134409;27;20039;-69
2021/10/14 04:18:43;;;;;;;11.02;5.28;;;;;;;6.68;100.00;100831.06;5134715;27;20043;-68
2021/10/14 04:21:13;;;;;;;9.82;5.90;;;;;;;6.61;100.00;100832.19;5134224;27;20039;-72
2021/10/14 04:23:43;;;;;;;9.40;5.10;;;;;;;6.63;100.00;100835.66;5134476;27;20428;-69
2021/10/14 04:26:11;;;;;;;8.25;5.70;;;;;;;6.60;100.00;100841.06;5134391;27;20039;-71
2021/10/14 04:28:40;;;;;;;9.55;5.80;;;;;;;6.57;100.00;100833.22;5134495;27;20396;-67
2021/10/14 04:31:10;;;;;;;7.85;4.55;;;;;;;6.73;100.00;100839.72;5134327;27;20433;-69
2021/10/14 04:33:38;;;;;;;9.43;5.57;;;;;;;6.63;100.00;100837.44;5133992;27;20043;-69
2021/10/14 04:36:06;;;;;;;8.10;5.35;;;;;;;6.68;100.00;100841.66;5134263;27;20043;-70
2021/10/14 04:38:35;;;;;;;8.05;5.30;;;;;;;6.74;100.00;100846.75;5133806;27;20449;-70
2021/10/14 04:41:03;;;;;;;8.35;5.68;;;;;;;6.64;100.00;100844.47;5134276;27;20438;-69
2021/10/14 04:43:32;;;;;;;8.10;5.50;;;;;;;6.72;100.00;100845.94;5133877;27;20522;-69
2021/10/14 04:46:00;;;;;;;8.25;5.15;;;;;;;6.65;100.00;100841.75;5132996;27;20373;-69
2021/10/14 04:48:29;;;;;;;9.13;5.30;;;;;;;6.73;100.00;100845.00;5133578;27;20071;-68
2021/10/14 04:50:57;;;;;;;8.75;5.38;;;;;;;6.62;100.00;100852.47;5133923;27;20115;-69
2021/10/14 04:53:25;;;;;;;9.02;5.25;;;;;;;6.62;100.00;100863.06;5133474;27;20040;-68
2021/10/14 04:55:54;;;;;;;8.57;5.15;;;;;;;6.71;100.00;100857.47;5134079;27;20053;-67
2021/10/14 04:58:24;;;;;;;9.40;5.85;;;;;;;6.69;100.00;100861.09;5133819;27;20501;-70
2021/10/14 05:00:53;;;;;;;10.52;5.97;;;;;;;6.67;100.00;100877.06;5133917;27;20047;-70
2021/10/14 05:03:23;;;;;;;11.07;6.25;;;;;;;6.58;100.00;100878.22;5133532;27;20402;-70
2021/10/14 05:05:54;;;;;;;10.45;6.00;;;;;;;6.79;100.00;100881.94;5133914;27;20058;-67
2021/10/14 05:08:22;;;;;;;9.38;6.28;;;;;;;6.77;100.00;100885.56;5133359;27;20043;-66
2021/10/14 05:10:50;;;;;;;9.85;6.25;;;;;;;6.70;100.00;100892.84;5133633;27;20051;-65
2021/10/14 05:13:22;;;;;;;12.50;6.82;;;;;;;6.64;100.00;100898.34;5133535;27;20039;-66
2021/10/14 05:15:51;;;;;;;10.93;6.55;;;;;;;6.65;100.00;100901.88;5133490;27;20043;-68
2021/10/14 05:18:19;;;;;;;11.05;6.70;;;;;;;6.63;100.00;100891.31;5133257;27;20096;-66
2021/10/14 05:20:47;;;;;;;9.13;6.20;;;;;;;6.76;100.00;100903.25;5133471;27;20073;-66
2021/10/14 05:23:17;;;;;;;11.98;7.25;;;;;;;6.70;100.00;100898.16;5133321;27;20043;-72
2021/10/14 05:25:45;;;;;;;11.98;6.70;;;;;;;6.68;100.00;100899.13;5133150;27;20391;-66
2021/10/14 05:28:15;;;;;;;9.10;6.25;;;;;;;6.73;100.00;100900.69;5133389;27;20043;-66
2021/10/14 05:30:43;;;;;;;11.57;7.03;;;;;;;6.68;100.00;100889.38;5133443;27;20035;-65
2021/10/14 05:33:12;;;;;;;11.88;7.47;;;;;;;6.76;100.00;100903.25;5133755;27;20391;-65
2021/10/14 05:35:40;;;;;;;11.38;7.50;;;;;;;6.75;100.00;100901.50;5131026;27;20429;-65
2021/10/14 05:38:08;;;;;;;10.65;7.10;;;;;;;6.75;100.00;100906.78;5131001;27;20472;-65
2021/10/14 05:40:38;;;;;;;11.88;7.63;;;;;;;6.73;100.00;100911.28;5131150;27;20073;-65
2021/10/14 05:43:06;;;;;;;11.70;7.72;;;;;;;6.61;100.00;100919.66;5131508;27;20050;-65
2021/10/14 05:45:34;;;;;;;11.57;7.40;;;;;;;6.76;100.00;100919.16;5131572;28;20082;-65
2021/10/14 05:48:03;;;;;;;12.25;7.38;;;;;;;6.65;100.00;100920.41;5130339;27;20164;-65
2021/10/14 05:50:33;;;;;;;10.45;6.72;;;;;;;6.68;100.00;100926.50;5131418;27;20041;-66
2021/10/14 05:53:02;;;;;;;11.32;7.97;;;;;;;6.69;100.00;100932.69;5131465;27;20058;-66
2021/10/14 05:55:30;;;;;;;10.93;7.03;;;;;;;6.92;100.00;100934.53;5130999;28;20051;-66
2021/10/14 05:57:59;;;;;;;10.45;6.90;;;;;;;6.99;100.00;100942.25;5134672;27;20047;-65
2021/10/14 06:00:27;;;;;;;12.80;7.10;;;;;;;6.90;100.00;100947.84;5134957;27;20057;-66
2021/10/14 06:02:56;;;;;;;10.88;6.60;;;;;;;6.88;100.00;100950.56;5135242;27;20103;-66
2021/10/14 06:05:24;;;;;;;11.68;6.75;;;;;;;6.94;100.00;100952.13;5134901;27;20078;-66
2021/10/14 06:07:52;;;;;;;16.10;6.70;;;;;;;6.94;100.00;100954.78;5135062;27;20047;-66
2021/10/14 06:10:21;;;;;;;12.88;8.02;;;;;;;6.89;100.00;100951.44;5134632;27;20453;-67
2021/10/14 06:12:52;;;;;;;14.93;8.05;;;;;;;7.04;100.00;100956.19;5135303;27;20043;-66
2021/10/14 06:15:22;;;;;;;12.57;7.85;;;;;;;7.07;100.00;100960.56;5134784;27;20084;-67
2021/10/14 06:17:50;;;;;;;12.18;8.32;;;;;;;6.86;100.00;100965.66;5135308;27;20043;-66
2021/10/14 06:20:18;;;;;;;14.43;8.70;;;;;;;6.93;100.00;100962.78;5135105;27;20429;-66
2021/10/14 06:22:46;;;;;;;12.77;8.50;;;;;;;6.99;100.00;100963.47;5134947;27;20142;-66
2021/10/14 06:25:14;;;;;;;14.32;8.77;;;;;;;6.88;100.00;100974.44;5134970;27;20433;-66
2021/10/14 06:27:43;;;;;;;14.40;9.15;;;;;;;6.94;100.00;100970.69;5134690;27;20073;-66
2021/10/14 06:30:11;;;;;;;14.50;9.27;;;;;;;7.01;100.00;100966.06;5135040;27;20053;-66
2021/10/14 06:32:41;;;;;;;15.80;9.93;;;;;;;7.00;100.00;100974.94;5134506;27;20066;-66
2021/10/14 06:35:09;;;;;;;14.32;9.05;;;;;;;7.08;100.00;100975.53;5134506;27;20035;-66
2021/10/14 06:37:37;;;;;;;13.02;8.25;;;;;;;7.34;100.00;100970.22;5134764;27;20043;-66
2021/10/14 06:40:07;;;;;;;16.52;9.38;;;;;;;7.18;100.00;100974.31;5134859;27;20089;-69
2021/10/14 06:42:35;;;;;;;16.15;9.32;;;;;;;7.10;100.00;100973.69;5134474;27;20111;-69
2021/10/14 06:45:06;;;;;;;11.75;7.82;;;;;;;7.25;100.00;100978.47;5134810;27;20050;-69
2021/10/14 06:47:35;;;;;;;15.10;7.38;;;;;;;7.37;100.00;100983.34;5134317;27;20047;-70
2021/10/14 06:50:06;;;;;;;16.08;7.70;;;;;;;7.54;100.00;100985.41;5134497;27;20043;-65
2021/10/14 06:52:35;;;;;;;10.98;7.07;;;;;;;7.66;100.00;100976.13;5134710;27;20084;-66
2021/10/14 06:55:04;;;;;;;13.13;7.32;;;;;;;7.69;100.00;100986.63;5134957;27;20414;-67
2021/10/14 06:57:33;;;;;;;11.32;7.32;;;;;;;7.58;100.00;100980.84;5136451;27;20036;-67
2021/10/14 07:00:01;;;;;;;15.68;6.90;;;;;;;7.86;100.00;100989.53;5151701;27;20170;-67
2021/10/14 07:02:31;;;;;;;12.02;7.25;;;;;;;7.74;100.00;100990.00;5138631;27;20450;-67
2021/10/14 07:04:59;;;;;;;14.60;7.32;;;;;;;7.73;100.00;100986.47;5148989;27;20039;-66
2021/10/14 07:07:31;;;;;;;12.27;7.28;;;;;;;7.73;100.00;100990.94;5154425;27;20042;-66
2021/10/14 07:09:59;;;;;;;13.75;7.65;;;;;;;7.74;100.00;100984.69;5155428;27;20510;-65
2021/10/14 07:12:29;;;;;;;11.60;7.63;;;;;;;7.88;100.00;100981.50;5154613;27;20103;-67
2021/10/14 07:15:00;;;;;;;17.25;8.35;;;;;;;7.93;100.00;100988.41;5154585;27;20444;-66
2021/10/14 07:17:28;;;;;;;12.57;7.32;;;;;;;7.98;100.00;100982.88;5154266;27;20047;-67
2021/10/14 07:19:56;;;;;;;13.85;8.18;;;;;;;7.96;100.00;100985.63;5154063;27;20047;-67
2021/10/14 07:22:25;;;;;;;14.40;7.53;;;;;;;7.86;100.00;100984.22;5154004;27;20395;-67
2021/10/14 07:24:54;;;;;;;11.60;7.70;;;;;;;7.99;100.00;100988.13;5152783;27;20086;-67
2021/10/14 07:27:23;;;;;;;13.48;7.80;;;;;;;8.13;100.00;100992.09;5153628;27;20125;-67
2021/10/14 07:29:51;;;;;;;13.38;7.47;;;;;;;8.29;99.64;100999.38;5154460;27;20480;-66
2021/10/14 07:32:19;;;;;;;15.02;7.78;;;;;;;8.35;99.56;101002.78;5154354;27;20059;-66
2021/10/14 07:34:47;;;;;;;14.38;7.82;;;;;;;8.38;98.79;101003.50;5153861;27;20043;-67
2021/10/14 07:37:19;;;;;;;15.32;8.18;;;;;;;8.48;97.24;100999.56;5154479;27;20043;-65
2021/10/14 07:39:47;;;;;;;11.02;6.90;;;;;;;8.64;94.67;101006.94;5152982;27;20046;-67
2021/10/14 07:42:17;;;;;;;11.43;7.72;;;;;;;8.86;92.48;101005.13;5154640;27;20042;-65
2021/10/14 07:44:45;;;;;;;11.70;7.22;;;;;;;8.87;92.61;101001.53;5154077;27;20133;-67
2021/10/14 07:47:14;;;;;;;15.10;8.43;;;;;;;8.92;91.66;101015.53;5154098;27;20041;-66
2021/10/14 07:49:42;;;;;;;11.23;7.43;;;;;;;8.89;91.24;101008.56;5153916;27;20133;-66
2021/10/14 07:52:10;;;;;;;13.63;7.78;;;;;;;9.11;89.36;101021.81;5154448;27;20039;-67
2021/10/14 07:54:38;;;;;;;13.40;7.43;;;;;;;9.07;88.86;101008.69;5153584;27;20522;-66
2021/10/14 07:57:07;;;;;;;12.60;7.57;;;;;;;9.19;88.12;101013.53;5154064;27;20039;-66
2021/10/14 07:59:36;;;;;;;12.13;7.22;;;;;;;9.21;87.38;101021.44;5153776;27;20179;-66
2021/10/14 08:02:04;;;;;;;12.60;7.32;;;;;;;9.41;86.18;101017.00;5154167;27;20399;-66
2021/10/14 08:04:33;;;;;;;13.13;7.53;;;;;;;9.41;86.01;101021.44;5153698;27;20472;-66
2021/10/14 08:07:02;;;;;;;12.18;7.05;;;;;;;9.55;85.47;101027.03;5153839;27;20051;-66
2021/10/14 08:09:35;;;;;;;12.13;7.00;;;;;;;9.61;85.91;101026.78;5153603;27;20138;-66
2021/10/14 08:12:03;;;;;;;11.20;7.20;;;;;;;9.62;86.21;101028.50;5153939;27;20034;-66
2021/10/14 08:14:31;;;;;;;10.80;6.60;;;;;;;9.68;84.87;101017.59;5153673;27;20095;-67
2021/10/14 08:17:03;;;;;;;10.70;5.95;;;;;;;9.80;82.69;101023.28;5153825;27;20125;-66
2021/10/14 08:19:31;;;;;;;10.90;6.78;;;;;;;9.91;81.75;101029.00;5153383;27;20403;-67
2021/10/14 08:22:00;;;;;;;10.50;6.95;;;;;;;9.89;81.32;101022.88;5153781;27;20398;-66
2021/10/14 08:24:28;;;;;;;10.95;6.32;;;;;;;9.82;81.14;101027.63;5153733;27;20450;-69
2021/10/14 08:26:58;;;;;;;12.35;7.20;;;;;;;9.85;83.17;101015.97;5153542;27;20391;-66
2021/10/14 08:29:31;;;;;;;11.35;7.10;;;;;;;10.01;80.96;101017.00;5153415;27;20064;-67
2021/10/14 08:32:02;;;;;;;11.70;8.07;;;;;;;9.93;81.94;101019.13;5153609;27;20065;-66
2021/10/14 08:34:30;;;;;;;13.63;7.70;;;;;;;10.02;81.51;101024.06;5153370;27;20129;-68
2021/10/14 08:36:58;;;;;;;12.30;7.45;;;;;;;9.96;81.48;101024.34;5153307;27;20341;-66
2021/10/14 08:39:26;;;;;;;14.13;8.25;;;;;;;9.98;82.73;101027.81;5153027;27;20046;-67
2021/10/14 08:41:54;;;;;;;12.55;7.80;;;;;;;10.13;80.73;101024.41;5153111;27;20066;-67
2021/10/14 08:44:25;;;;;;;12.05;7.22;;;;;;;10.22;81.11;101029.34;5152791;27;20042;-67
2021/10/14 08:46:58;;;;;;;15.52;7.63;;;;;;;10.14;80.70;101025.31;5152951;27;20069;-66
2021/10/14 08:49:28;;;;;;;13.05;7.80;;;;;;;10.04;81.93;101028.41;5152788;27;20051;-66
2021/10/14 08:51:56;;;;;;;13.73;8.18;;;;;;;10.00;82.93;101025.94;5152654;27;20142;-66
2021/10/14 08:54:25;;;;;;;12.45;8.25;;;;;;;10.15;81.01;101027.03;5151657;27;20159;-67
2021/10/14 08:56:53;;;;;;;9.75;6.63;;;;;;;10.21;77.34;101032.06;5151367;27;20053;-67
2021/10/14 08:59:21;;;;;;;9.18;6.50;;;;;;;10.24;77.73;101032.84;5152304;27;20452;-67
2021/10/14 09:02:15;;;;;;;11.50;7.35;;;;;;;10.02;79.34;101021.38;5152517;27;20076;-66
2021/10/14 09:04:57;;;;;;;12.10;6.43;;;;;;;10.07;78.47;101029.19;5152151;27;20055;-67
2021/10/14 09:07:28;;;;;;;11.45;6.90;;;;;;;9.88;80.53;101034.47;5152768;27;20380;-67
2021/10/14 09:09:58;;;;;;;10.23;6.70;;;;;;;9.88;79.92;101029.16;5153249;27;20035;-66
2021/10/14 09:12:33;;;;;;;10.73;7.22;;;;;;;10.00;80.47;101028.59;5153234;27;20039;-66
2021/10/14 09:15:04;;;;;;;9.73;5.80;;;;;;;10.12;77.75;101027.16;5152873;27;20399;-67
2021/10/14 09:17:44;;;;;;;10.30;6.45;;;;;;;10.03;79.00;101025.78;5152627;27;20055;-68
2021/10/14 09:20:30;;;;;;;10.52;6.20;;;;;;;10.07;77.17;101024.72;5152832;27;20087;-67
2021/10/14 09:23:00;;;;;;;8.23;6.13;;;;;;;10.03;78.12;101028.44;5153130;27;20053;-67
2021/10/14 09:25:30;;;;;;;10.80;6.07;;;;;;;9.92;78.73;101028.06;5153053;27;20039;-67
2021/10/14 09:28:10;;;;;;;9.90;6.18;;;;;;;9.96;78.62;101032.34;5153014;27;20043;-67
2021/10/14 09:30:51;;;;;;;10.27;5.88;;;;;;;9.84;77.37;101038.19;5152960;27;20210;-67
2021/10/14 09:33:37;;;;;;;8.88;5.78;;;;;;;9.89;77.87;101041.53;5156766;27;20126;-66
2021/10/14 09:36:19;;;;;;;10.30;6.13;;;;;;;9.80;77.99;101041.94;5156711;27;20035;-66
2021/10/14 09:38:50;;;;;;;12.50;6.50;;;;;;;9.32;80.42;101044.00;5156586;27;20057;-67
2021/10/14 09:41:21;;;;;;;10.25;6.03;;;;;;;9.55;78.10;101043.00;5156863;27;20050;-66
2021/10/14 09:43:52;;;;;;;10.25;6.25;;;;;;;9.78;78.72;101043.81;5157261;27;20087;-67
2021/10/14 09:46:35;;;;;;;11.52;6.65;;;;;;;9.64;78.44;101050.59;5156516;27;20042;-66
2021/10/14 09:49:05;;;;;;;10.00;6.40;;;;;;;9.72;79.56;101045.81;5156775;27;20126;-67
2021/10/14 09:51:35;;;;;;;10.25;6.75;;;;;;;9.62;80.95;101044.47;5156911;27;20468;-66
2021/10/14 09:54:04;;;;;;;13.73;7.93;;;;;;;9.54;81.14;101046.59;5155527;27;20058;-65
2021/10/14 09:56:33;;;;;;;13.13;7.47;;;;;;;9.58;82.18;101044.69;5156601;27;20042;-67
2021/10/14 09:59:02;;;;;;;12.40;7.90;;;;;;;9.77;80.08;101047.44;5156341;27;20049;-66
2021/10/14 10:01:33;;;;;;;14.75;7.32;;;;;;;9.73;79.56;101044.00;5156388;27;20046;-66
2021/10/14 10:04:02;;;;;;;11.70;7.20;;;;;;;9.87;78.41;101046.94;5156472;27;20439;-66
2021/10/14 10:06:32;;;;;;;11.00;7.30;;;;;;;9.87;78.09;101051.41;5156302;27;20045;-66
2021/10/14 10:09:16;;;;;;;11.43;6.63;;;;;;;10.09;76.65;101049.50;5156276;27;20045;-66
2021/10/14 10:11:49;;;;;;;13.55;7.40;;;;;;;10.06;75.94;101052.31;5155839;27;20091;-67
2021/10/14 10:14:21;;;;;;;12.27;6.60;;;;;;;10.00;76.26;101049.91;5156145;27;20095;-66
2021/10/14 10:16:56;;;;;;;11.25;6.55;;;;;;;10.25;76.42;101045.25;5155876;27;20482;-66
2021/10/14 10:19:46;;;;;;;12.50;7.32;;;;;;;10.39;75.69;101047.25;5155715;27;20039;-66
2021/10/14 10:22:51;;;;;;;11.18;7.20;;;;;;;10.70;74.19;101043.97;5155074;27;20057;-67
2021/10/14 10:25:38;;;;;;;11.00;6.97;;;;;;;10.71;74.19;101048.41;5149147;27;20055;-66
2021/10/14 10:28:09;;;;;;;10.77;6.57;;;;;;;10.73;73.54;101051.00;5155494;27;20066;-66
2021/10/14 10:30:55;;;;;;;10.65;6.63;;;;;;;10.84;71.88;101044.19;5155404;27;20042;-66
2021/10/14 10:33:49;;;;;;;11.25;5.80;;;;;;;10.96;70.61;101041.88;5155539;27;20081;-66
2021/10/14 10:36:50;;;;;;;8.55;6.10;;;;;;;11.13;69.99;101042.75;5154669;27;20403;-67
2021/10/14 10:39:47;;;;;;;11.35;5.68;;;;;;;11.19;70.83;101041.56;5155069;27;20078;-67
2021/10/14 10:42:23;;;;;;;9.57;6.25;;;;;;;11.24;71.44;101038.69;5154943;27;20147;-66
2021/10/14 10:44:52;;;;;;;10.68;6.25;;;;;;;11.28;70.72;101029.56;5154013;27;20153;-66
2021/10/14 10:47:50;;;;;;;8.55;6.15;;;;;;;11.37;68.86;101031.78;5154758;27;20041;-68
2021/10/14 10:50:22;;;;;;;8.15;4.78;;;;;;;10.99;67.75;101029.22;5152915;27;20552;-66
2021/10/14 10:53:02;;;;;;;9.32;5.68;;;;;;;11.12;67.79;101029.50;5155135;27;20049;-67
2021/10/14 10:55:41;;;;;;;9.23;5.10;;;;;;;11.35;66.21;101023.84;5155193;27;20408;-67
2021/10/14 10:58:12;;;;;;;8.35;5.25;;;;;;;11.54;65.55;101021.09;5155395;27;20047;-66
2021/10/14 11:00:42;;;;;;;9.52;5.18;;;;;;;11.51;64.22;101023.94;5154757;27;20046;-69
2021/10/14 11:03:19;;;;;;;8.93;5.55;;;;;;;11.60;64.90;101017.25;5155386;27;20038;-67
2021/10/14 11:05:51;;;;;;;8.48;5.25;;;;;;;11.58;64.90;101019.09;5155545;27;20057;-67
2021/10/14 11:08:22;;;;;;;10.27;5.90;;;;;;;11.70;65.66;101015.81;5153482;27;20463;-67
2021/10/14 11:10:53;;;;;;;7.93;5.43;;;;;;;11.73;64.84;101012.97;5154606;27;20043;-65
2021/10/14 11:13:24;;;;;;;10.82;5.63;;;;;;;11.81;64.59;101010.78;5155361;27;20045;-66
2021/10/14 11:16:03;;;;;;;8.55;5.43;;;;;;;12.00;62.64;101008.88;5154636;27;20135;-67
2021/10/14 11:18:32;;;;;;;8.35;5.70;;;;;;;11.96;63.05;100996.59;5154755;27;20039;-67
2021/10/14 11:21:02;;;;;;;11.75;5.55;;;;;;;12.11;62.79;100994.03;5154546;27;20047;-67
2021/10/14 11:23:34;;;;;;;11.80;5.38;;;;;;;11.81;63.16;101000.09;5154646;27;20043;-69
2021/10/14 11:26:08;;;;;;;7.65;4.82;;;;;;;11.90;61.76;100999.59;5154542;27;20082;-67
2021/10/14 11:29:05;;;;;;;7.82;5.00;;;;;;;11.90;60.93;101002.28;5154865;27;20042;-67
2021/10/14 11:31:37;;;;;;;8.07;5.22;;;;;;;11.94;62.30;100989.59;5154639;27;20479;-67
2021/10/14 11:34:08;;;;;;;8.52;5.10;;;;;;;11.95;61.04;100992.19;5153542;27;20510;-67
2021/10/14 11:36:37;;;;;;;8.35;5.35;;;;;;;11.87;62.92;100989.09;5154811;27;20440;-67